createdAt,value
2023-05-01T00:00:54.568Z,60.73
2023-05-01T00:03:21.793Z,60.78
2023-05-01T00:05:48.986Z,61.79
2023-05-01T00:08:16.214Z,63.34
2023-05-01T00:10:43.345Z,64.07
2023-05-01T00:13:10.360Z,65.44
2023-05-01T00:15:37.671Z,64.52
2023-05-01T00:18:04.726Z,64.52
2023-05-01T00:20:31.726Z,65.63
2023-05-01T00:22:58.630Z,66.48
2023-05-01T00:25:25.641Z,67.66
2023-05-01T00:27:52.579Z,69.04
2023-05-01T00:30:19.551Z,69.74
2023-05-01T00:32:46.554Z,67.27
2023-05-01T00:35:13.766Z,67.53
2023-05-01T00:37:40.857Z,67.40
2023-05-01T00:40:08.744Z,66.91
2023-05-01T00:42:40.190Z,67.98
2023-05-01T00:45:08.592Z,69.05
2023-05-01T00:47:39.070Z,69.32
2023-05-01T00:50:06.955Z,68.03
2023-05-01T00:52:34.264Z,67.07
2023-05-01T00:55:01.433Z,65.88
2023-05-01T00:57:28.687Z,65.67
2023-05-01T00:59:55.915Z,64.50
2023-05-01T01:02:23.767Z,62.61
2023-05-01T01:04:51.238Z,62.74
2023-05-01T01:07:37.247Z,65.95
2023-05-01T01:10:34.942Z,67.09
2023-05-01T01:13:01.832Z,69.41
2023-05-01T01:16:19.559Z,72.19
2023-05-01T01:18:53.262Z,74.45
2023-05-01T01:21:32.552Z,74.20
2023-05-01T01:24:22.371Z,73.20
2023-05-01T01:26:55.261Z,72.81
2023-05-01T01:29:49.284Z,74.68
2023-05-01T01:32:37.100Z,73.48
2023-05-01T01:35:08.283Z,71.37
2023-05-01T01:37:48.911Z,69.63
2023-05-01T01:40:26.242Z,68.71
2023-05-01T01:43:02.842Z,68.53
2023-05-01T01:45:42.356Z,68.16
2023-05-01T01:48:13.373Z,69.32
2023-05-01T01:50:43.485Z,66.85
2023-05-01T01:53:13.576Z,65.79
2023-05-01T01:55:43.514Z,66.76
2023-05-01T01:58:11.361Z,67.61
2023-05-01T02:00:42.674Z,70.12
2023-05-01T02:03:12.553Z,71.20
2023-05-01T02:05:41.996Z,71.92
2023-05-01T02:08:11.565Z,74.93
2023-05-01T02:10:40.610Z,74.92
2023-05-01T02:13:09.105Z,74.01
2023-05-01T02:15:38.082Z,72.90
2023-05-01T02:18:05.729Z,72.10
2023-05-01T02:20:33.793Z,72.63
2023-05-01T02:23:01.759Z,72.71
2023-05-01T02:25:33.078Z,72.70
2023-05-01T02:28:07.638Z,73.94
2023-05-01T02:30:34.578Z,72.81
2023-05-01T02:33:01.591Z,72.02
2023-05-01T02:35:28.579Z,70.39
2023-05-01T02:37:55.633Z,71.49
2023-05-01T02:40:22.722Z,70.40
2023-05-01T02:42:51.928Z,74.22
2023-05-01T02:45:25.614Z,78.34
2023-05-01T02:47:56.672Z,74.93
2023-05-01T02:50:25.377Z,73.22
2023-05-01T02:52:52.798Z,71.87
2023-05-01T02:55:20.227Z,73.63
2023-05-01T02:57:47.436Z,72.22
2023-05-01T03:00:14.540Z,72.47
2023-05-01T03:02:41.624Z,72.74
2023-05-01T03:05:09.179Z,72.25
2023-05-01T03:07:36.391Z,70.49
2023-05-01T03:10:08.085Z,69.94
2023-05-01T03:12:35.038Z,69.73
2023-05-01T03:15:01.967Z,68.70
2023-05-01T03:17:29.456Z,69.84
2023-05-01T03:19:56.703Z,71.00
2023-05-01T03:22:23.837Z,69.56
2023-05-01T03:24:51.134Z,70.30
2023-05-01T03:27:18.022Z,69.00
2023-05-01T03:29:44.984Z,67.81
2023-05-01T03:32:11.996Z,67.10
2023-05-01T03:34:38.955Z,69.23
2023-05-01T03:37:05.855Z,70.70
2023-05-01T03:39:32.737Z,69.44
2023-05-01T03:41:59.751Z,69.15
2023-05-01T03:44:27.034Z,68.97
2023-05-01T03:46:54.041Z,68.80
2023-05-01T03:49:21.097Z,67.69
2023-05-01T03:51:48.118Z,70.03
2023-05-01T03:54:15.371Z,69.53
2023-05-01T03:56:42.327Z,67.35
2023-05-01T03:59:09.257Z,66.91
2023-05-01T04:01:36.165Z,66.37
2023-05-01T04:04:03.881Z,66.90
2023-05-01T04:06:31.117Z,70.56
2023-05-01T04:08:58.207Z,72.04
2023-05-01T04:11:25.181Z,71.49
2023-05-01T04:13:52.055Z,69.99
2023-05-01T04:16:19.020Z,69.34
2023-05-01T04:18:46.020Z,72.94
2023-05-01T04:21:14.767Z,72.98
2023-05-01T04:23:41.818Z,72.73
2023-05-01T04:26:09.471Z,73.35
2023-05-01T04:28:36.394Z,73.45
2023-05-01T04:31:03.409Z,74.54
2023-05-01T04:33:30.363Z,74.82
2023-05-01T04:35:57.351Z,75.79
2023-05-01T04:38:24.424Z,72.61
2023-05-01T04:40:52.908Z,72.05
2023-05-01T04:43:20.719Z,69.77
2023-05-01T04:45:48.034Z,66.81
2023-05-01T04:48:15.025Z,67.87
2023-05-01T04:50:42.046Z,65.57
2023-05-01T04:53:09.212Z,61.36
2023-05-01T04:55:36.347Z,58.84
2023-05-01T04:58:05.044Z,56.98
2023-05-01T05:00:32.054Z,53.92
2023-05-01T05:02:59.126Z,53.91
2023-05-01T05:05:26.183Z,51.87
2023-05-01T05:07:53.119Z,51.30
2023-05-01T05:10:20.069Z,50.12
2023-05-01T05:12:47.031Z,49.50
2023-05-01T05:15:13.944Z,51.22
2023-05-01T05:17:41.702Z,50.95
2023-05-01T05:20:09.268Z,47.53
2023-05-01T05:22:37.696Z,48.10
2023-05-01T05:25:07.002Z,47.54
2023-05-01T05:27:38.416Z,45.99
2023-05-01T05:30:06.211Z,42.98
2023-05-01T05:32:33.873Z,44.54
2023-05-01T05:35:01.076Z,43.30
2023-05-01T05:37:28.094Z,42.64
2023-05-01T05:39:55.701Z,43.26
2023-05-01T05:42:22.803Z,43.79
2023-05-01T05:44:49.887Z,43.98
2023-05-01T05:47:16.757Z,43.83
2023-05-01T05:49:43.723Z,45.24
2023-05-01T05:52:10.797Z,47.88
2023-05-01T05:54:37.784Z,45.54
2023-05-01T05:57:04.877Z,45.48
2023-05-01T05:59:32.103Z,45.69
2023-05-01T06:01:59.241Z,45.44
2023-05-01T06:04:26.253Z,46.76
2023-05-01T06:06:53.398Z,47.77
2023-05-01T06:09:20.531Z,49.69
2023-05-01T06:11:48.514Z,47.90
2023-05-01T06:14:16.974Z,50.06
2023-05-01T06:16:44.039Z,51.19
2023-05-01T06:19:12.440Z,53.82
2023-05-01T06:21:39.380Z,55.97
2023-05-01T06:24:06.877Z,52.02
2023-05-01T06:26:33.819Z,52.13
2023-05-01T06:29:00.977Z,52.50
2023-05-01T06:31:27.998Z,50.95
2023-05-01T06:33:55.248Z,49.61
2023-05-01T06:36:22.177Z,51.25
2023-05-01T06:38:49.538Z,50.34
2023-05-01T06:41:17.302Z,51.52
2023-05-01T06:43:44.255Z,51.19
2023-05-01T06:46:11.299Z,50.28
2023-05-01T06:48:38.723Z,50.32
2023-05-01T06:51:05.823Z,49.26
2023-05-01T06:53:32.754Z,50.24
2023-05-01T06:55:59.735Z,50.27
2023-05-01T06:58:26.613Z,49.95
2023-05-01T07:00:54.497Z,49.82
2023-05-01T07:03:21.573Z,50.84
2023-05-01T07:05:48.688Z,51.51
2023-05-01T07:08:15.639Z,50.00
2023-05-01T07:10:42.739Z,51.23
2023-05-01T07:13:09.926Z,50.46
2023-05-01T07:15:37.413Z,50.87
2023-05-01T07:18:06.420Z,52.60
2023-05-01T07:20:34.990Z,52.42
2023-05-01T07:23:01.942Z,53.36
2023-05-01T07:25:28.921Z,50.65
2023-05-01T07:27:56.025Z,50.97
2023-05-01T07:30:23.120Z,52.67
2023-05-01T07:32:50.829Z,50.37
2023-05-01T07:35:17.914Z,51.42
2023-05-01T07:37:44.874Z,52.25
2023-05-01T07:40:12.285Z,49.70
2023-05-01T07:42:39.234Z,51.27
2023-05-01T07:45:07.662Z,51.25
2023-05-01T07:47:34.937Z,50.04
2023-05-01T07:50:01.860Z,50.48
2023-05-01T07:52:29.039Z,48.68
2023-05-01T07:54:56.303Z,50.77
2023-05-01T07:57:26.218Z,46.85
2023-05-01T07:59:57.082Z,45.05
2023-05-01T08:02:24.347Z,44.97
2023-05-01T08:04:51.901Z,45.42
2023-05-01T08:07:19.051Z,44.69
2023-05-01T08:09:46.618Z,43.73
2023-05-01T08:12:14.035Z,42.28
2023-05-01T08:14:40.964Z,41.70
2023-05-01T08:17:07.846Z,41.55
2023-05-01T08:19:35.168Z,43.75
2023-05-01T08:22:02.071Z,42.37
2023-05-01T08:24:29.731Z,41.58
2023-05-01T08:26:57.174Z,43.30
2023-05-01T08:29:24.239Z,43.82
2023-05-01T08:31:51.253Z,43.74
2023-05-01T08:34:18.485Z,41.90
2023-05-01T08:36:45.409Z,43.90
2023-05-01T08:39:12.326Z,42.33
2023-05-01T08:41:40.259Z,42.37
2023-05-01T08:44:09.471Z,41.51
2023-05-01T08:47:02.138Z,42.51
2023-05-01T08:49:33.050Z,40.42
2023-05-01T08:52:04.555Z,40.65
2023-05-01T08:54:33.434Z,41.55
2023-05-01T08:57:04.777Z,38.28
2023-05-01T08:59:35.335Z,40.29
2023-05-01T09:02:06.897Z,40.73
2023-05-01T09:04:36.471Z,39.70
2023-05-01T09:07:03.863Z,39.41
2023-05-01T09:09:31.811Z,41.44
2023-05-01T09:12:17.139Z,38.81
2023-05-01T09:14:44.052Z,38.13
2023-05-01T09:17:11.842Z,41.78
2023-05-01T09:19:39.051Z,39.45
2023-05-01T09:22:05.976Z,40.33
2023-05-01T09:24:33.690Z,40.70
2023-05-01T09:27:00.611Z,39.72
2023-05-01T09:29:41.623Z,38.39
2023-05-01T09:32:26.286Z,41.81
2023-05-01T09:34:53.953Z,38.20
2023-05-01T09:37:29.904Z,36.89
2023-05-01T09:40:13.713Z,38.18
2023-05-01T09:42:41.433Z,38.28
2023-05-01T09:45:15.183Z,36.69
2023-05-01T09:47:48.938Z,36.19
2023-05-01T09:50:33.361Z,37.39
2023-05-01T09:53:05.409Z,38.24
2023-05-01T09:55:33.425Z,36.21
2023-05-01T09:58:00.332Z,35.66
2023-05-01T10:00:27.561Z,35.76
2023-05-01T10:02:55.875Z,39.56
2023-05-01T10:05:25.061Z,35.39
2023-05-01T10:08:15.062Z,37.12
2023-05-01T10:10:44.025Z,36.87
2023-05-01T10:13:17.879Z,38.15
2023-05-01T10:15:46.972Z,35.84
2023-05-01T10:18:15.073Z,34.99
2023-05-01T10:20:42.073Z,35.48
2023-05-01T10:23:09.205Z,35.33
2023-05-01T10:25:37.187Z,37.49
2023-05-01T10:28:07.716Z,36.10
2023-05-01T10:30:36.149Z,36.70
2023-05-01T10:33:03.436Z,35.96
2023-05-01T10:35:38.460Z,36.96
2023-05-01T10:38:07.979Z,36.66
2023-05-01T10:40:41.223Z,37.03
2023-05-01T10:43:25.961Z,35.65
2023-05-01T10:45:54.212Z,37.31
2023-05-01T10:48:39.912Z,35.89
2023-05-01T10:51:20.831Z,35.87
2023-05-01T10:53:49.993Z,39.00
2023-05-01T10:56:25.962Z,37.84
2023-05-01T10:58:52.833Z,35.83
2023-05-01T11:01:42.396Z,39.29
2023-05-01T11:04:12.132Z,34.49
2023-05-01T11:06:39.290Z,35.86
2023-05-01T11:09:38.329Z,34.26
2023-05-01T11:12:06.805Z,37.07
2023-05-01T11:15:05.927Z,36.46
2023-05-01T11:17:42.342Z,32.31
2023-05-01T11:20:33.066Z,36.04
2023-05-01T11:23:00.173Z,36.40
2023-05-01T11:25:31.663Z,35.76
2023-05-01T11:28:01.718Z,34.78
2023-05-01T11:30:41.656Z,34.82
2023-05-01T11:33:10.540Z,36.11
2023-05-01T11:35:39.106Z,34.80
2023-05-01T11:38:06.070Z,36.22
2023-05-01T11:40:35.238Z,34.99
2023-05-01T11:43:07.322Z,35.44
2023-05-01T11:45:36.719Z,34.50
2023-05-01T11:48:04.939Z,34.37
2023-05-01T11:50:37.150Z,36.69
2023-05-01T11:53:11.944Z,36.25
2023-05-01T11:55:40.486Z,37.70
2023-05-01T11:58:07.757Z,35.48
2023-05-01T12:00:39.955Z,37.77
2023-05-01T12:03:09.254Z,38.63
2023-05-01T12:05:37.523Z,35.70
2023-05-01T12:08:13.555Z,36.31
2023-05-01T12:10:43.844Z,36.31
2023-05-01T12:13:13.228Z,37.64
2023-05-01T12:15:43.419Z,36.50
2023-05-01T12:18:11.471Z,37.43
2023-05-01T12:20:39.300Z,37.03
2023-05-01T12:23:08.055Z,35.66
2023-05-01T12:25:35.953Z,35.69
2023-05-01T12:28:07.970Z,35.98
2023-05-01T12:30:35.131Z,37.30
2023-05-01T12:33:11.955Z,38.92
2023-05-01T12:35:40.225Z,36.82
2023-05-01T12:38:13.074Z,36.60
2023-05-01T12:40:41.902Z,36.68
2023-05-01T12:43:09.034Z,36.69
2023-05-01T12:45:40.741Z,36.11
2023-05-01T12:48:13.898Z,37.07
2023-05-01T12:50:42.173Z,37.93
2023-05-01T12:53:10.417Z,35.82
2023-05-01T12:55:48.282Z,36.46
2023-05-01T12:58:16.451Z,38.59
2023-05-01T13:00:49.965Z,36.75
2023-05-01T13:03:28.516Z,38.18
2023-05-01T13:06:01.495Z,36.22
2023-05-01T13:08:34.038Z,35.04
2023-05-01T13:11:14.274Z,36.00
2023-05-01T13:13:41.694Z,36.58
2023-05-01T13:16:13.289Z,37.83
2023-05-01T13:18:48.174Z,38.02
2023-05-01T13:21:18.057Z,37.78
2023-05-01T13:23:54.334Z,37.67
2023-05-01T13:26:31.780Z,35.48
2023-05-01T13:29:00.355Z,36.59
2023-05-01T13:31:28.034Z,36.73
2023-05-01T13:33:58.578Z,39.24
2023-05-01T13:36:27.600Z,36.62
2023-05-01T13:38:57.065Z,36.42
2023-05-01T13:41:26.411Z,37.22
2023-05-01T13:43:55.161Z,36.93
2023-05-01T13:46:24.319Z,36.19
2023-05-01T13:48:51.944Z,36.50
2023-05-01T13:51:24.423Z,34.77
2023-05-01T13:53:54.165Z,38.74
2023-05-01T13:56:22.132Z,37.34
2023-05-01T13:58:50.543Z,36.15
2023-05-01T14:01:20.324Z,37.04
2023-05-01T14:03:48.458Z,38.25
2023-05-01T14:06:18.415Z,39.59
2023-05-01T14:08:47.197Z,37.28
2023-05-01T14:11:15.259Z,39.46
2023-05-01T14:13:44.229Z,36.53
2023-05-01T14:16:19.940Z,36.19
2023-05-01T14:18:48.465Z,37.38
2023-05-01T14:21:16.926Z,36.74
2023-05-01T14:23:44.482Z,36.54
2023-05-01T14:26:17.059Z,36.59
2023-05-01T14:28:45.465Z,36.26
2023-05-01T14:31:31.345Z,36.04
2023-05-01T14:34:00.146Z,34.92
2023-05-01T14:36:32.930Z,36.59
2023-05-01T14:39:01.343Z,36.48
2023-05-01T14:41:28.382Z,35.95
2023-05-01T14:43:55.528Z,36.65
2023-05-01T14:46:25.263Z,36.38
2023-05-01T14:48:52.150Z,37.83
2023-05-01T14:51:20.503Z,35.75
2023-05-01T14:53:47.474Z,37.23
2023-05-01T14:56:14.498Z,37.29
2023-05-01T14:58:42.177Z,37.98
2023-05-01T15:01:09.135Z,37.74
2023-05-01T15:03:42.490Z,37.75
2023-05-01T15:06:10.343Z,38.57
2023-05-01T15:08:38.534Z,38.20
2023-05-01T15:11:05.521Z,37.77
2023-05-01T15:13:32.451Z,37.34
2023-05-01T15:15:59.519Z,36.64
2023-05-01T15:18:26.589Z,38.13
2023-05-01T15:20:53.825Z,38.12
2023-05-01T15:23:20.856Z,37.07
2023-05-01T15:25:48.211Z,38.78
2023-05-01T15:28:15.184Z,38.90
2023-05-01T15:30:47.209Z,38.97
2023-05-01T15:33:17.755Z,39.83
2023-05-01T15:35:46.991Z,40.01
2023-05-01T15:38:13.904Z,40.29
2023-05-01T15:40:43.839Z,39.36
2023-05-01T15:43:10.803Z,38.74
2023-05-01T15:45:43.347Z,39.01
2023-05-01T15:48:12.034Z,37.56
2023-05-01T15:50:39.108Z,38.01
2023-05-01T15:53:06.046Z,37.03
2023-05-01T15:55:34.372Z,37.22
2023-05-01T15:58:02.378Z,41.29
2023-05-01T16:00:29.469Z,39.15
2023-05-01T16:02:56.608Z,38.35
2023-05-01T16:05:24.967Z,40.09
2023-05-01T16:07:56.077Z,40.56
2023-05-01T16:10:23.661Z,38.38
2023-05-01T16:12:53.335Z,38.40
2023-05-01T16:15:20.316Z,37.84
2023-05-01T16:17:48.151Z,37.99
2023-05-01T16:20:17.435Z,40.49
2023-05-01T16:22:44.561Z,40.29
2023-05-01T16:25:12.155Z,42.05
2023-05-01T16:27:46.533Z,40.25
2023-05-01T16:30:17.025Z,40.22
2023-05-01T16:32:45.128Z,40.81
2023-05-01T16:35:19.901Z,41.88
2023-05-01T16:37:46.862Z,39.85
2023-05-01T16:40:18.008Z,40.45
2023-05-01T16:42:52.282Z,39.70
2023-05-01T16:45:20.212Z,40.01
2023-05-01T16:47:47.575Z,40.69
2023-05-01T16:50:14.902Z,41.20
2023-05-01T16:52:41.872Z,40.73
2023-05-01T16:55:09.408Z,40.36
2023-05-01T16:57:36.348Z,40.26
2023-05-01T17:00:05.417Z,41.98
2023-05-01T17:02:33.727Z,40.76
2023-05-01T17:05:00.876Z,41.47
2023-05-01T17:07:27.836Z,41.75
2023-05-01T17:09:55.200Z,40.27
2023-05-01T17:12:22.263Z,40.89
2023-05-01T17:14:49.383Z,41.69
2023-05-01T17:17:18.096Z,41.66
2023-05-01T17:19:45.385Z,41.28
2023-05-01T17:22:12.394Z,42.29
2023-05-01T17:24:39.353Z,41.89
2023-05-01T17:27:06.625Z,41.57
2023-05-01T17:29:33.552Z,41.32
2023-05-01T17:32:01.001Z,41.45
2023-05-01T17:34:28.022Z,41.78
2023-05-01T17:36:57.183Z,42.17
2023-05-01T17:39:26.203Z,43.26
2023-05-01T17:41:53.202Z,42.65
2023-05-01T17:44:20.132Z,42.37
2023-05-01T17:46:47.080Z,42.21
2023-05-01T17:49:14.531Z,41.63
2023-05-01T17:51:41.676Z,41.37
2023-05-01T17:54:08.600Z,41.90
2023-05-01T17:56:35.525Z,41.25
2023-05-01T17:59:02.442Z,41.54
2023-05-01T18:01:29.527Z,42.65
2023-05-01T18:03:56.845Z,43.30
2023-05-01T18:06:24.800Z,42.58
2023-05-01T18:08:52.274Z,42.82
2023-05-01T18:11:19.258Z,41.85
2023-05-01T18:13:48.344Z,42.77
2023-05-01T18:16:16.402Z,43.56
2023-05-01T18:18:43.434Z,44.63
2023-05-01T18:21:10.705Z,45.86
2023-05-01T18:23:37.765Z,45.66
2023-05-01T18:26:05.331Z,45.80
2023-05-01T18:28:33.741Z,45.47
2023-05-01T18:31:00.948Z,45.54
2023-05-01T18:33:28.065Z,44.38
2023-05-01T18:35:55.215Z,46.00
2023-05-01T18:38:22.200Z,45.66
2023-05-01T18:40:49.394Z,47.95
2023-05-01T18:43:16.349Z,47.35
2023-05-01T18:45:43.239Z,47.75
2023-05-01T18:48:10.303Z,48.58
2023-05-01T18:50:37.296Z,49.09
2023-05-01T18:53:04.218Z,49.32
2023-05-01T18:55:31.289Z,49.84
2023-05-01T18:57:58.514Z,50.18
2023-05-01T19:00:26.771Z,50.99
2023-05-01T19:02:53.882Z,51.18
2023-05-01T19:05:22.823Z,50.13
2023-05-01T19:07:49.941Z,51.00
2023-05-01T19:10:17.356Z,49.29
2023-05-01T19:12:44.335Z,51.20
2023-05-01T19:15:11.620Z,50.63
2023-05-01T19:17:39.378Z,50.07
2023-05-01T19:20:07.327Z,51.51
2023-05-01T19:22:34.284Z,51.69
2023-05-01T19:25:01.647Z,52.28
2023-05-01T19:27:28.637Z,52.71
2023-05-01T19:29:55.721Z,53.41
2023-05-01T19:32:23.358Z,53.46
2023-05-01T19:34:50.555Z,53.14
2023-05-01T19:37:17.787Z,54.89
2023-05-01T19:39:44.882Z,53.88
2023-05-01T19:42:12.199Z,52.21
2023-05-01T19:44:39.119Z,50.34
2023-05-01T19:47:06.320Z,49.95
2023-05-01T19:49:33.219Z,50.86
2023-05-01T19:52:00.727Z,51.22
2023-05-01T19:54:27.763Z,50.36
2023-05-01T19:56:56.282Z,50.94
2023-05-01T19:59:23.559Z,51.80
2023-05-01T20:01:50.842Z,53.07
2023-05-01T20:04:17.995Z,52.13
2023-05-01T20:06:45.259Z,51.42
2023-05-01T20:09:12.212Z,51.96
2023-05-01T20:11:39.273Z,52.83
2023-05-01T20:14:06.237Z,55.15
2023-05-01T20:16:33.458Z,52.46
2023-05-01T20:19:00.554Z,52.17
2023-05-01T20:21:27.597Z,53.88
2023-05-01T20:23:55.315Z,54.02
2023-05-01T20:26:22.287Z,54.01
2023-05-01T20:28:51.216Z,54.91
2023-05-01T20:31:18.168Z,55.35
2023-05-01T20:33:45.103Z,56.65
2023-05-01T20:36:12.861Z,57.28
2023-05-01T20:38:43.748Z,56.29
2023-05-01T20:41:10.738Z,56.52
2023-05-01T20:43:39.139Z,56.61
2023-05-01T20:46:06.148Z,56.77
2023-05-01T20:48:33.355Z,57.50
2023-05-01T20:51:00.695Z,58.69
2023-05-01T20:53:27.653Z,57.38
2023-05-01T20:55:54.651Z,60.28
2023-05-01T20:58:21.725Z,58.74
2023-05-01T21:00:48.692Z,57.74
2023-05-01T21:03:16.514Z,58.42
2023-05-01T21:05:43.614Z,57.99
2023-05-01T21:08:10.650Z,57.46
2023-05-01T21:10:37.618Z,59.17
2023-05-01T21:13:04.696Z,60.06
2023-05-01T21:15:32.267Z,59.42
2023-05-01T21:17:59.867Z,59.02
2023-05-01T21:20:31.951Z,58.59
2023-05-01T21:23:00.533Z,57.29
2023-05-01T21:25:30.173Z,58.87
2023-05-01T21:27:57.237Z,57.03
2023-05-01T21:30:33.657Z,55.57
2023-05-01T21:33:21.460Z,56.28
2023-05-01T21:35:48.826Z,58.16
2023-05-01T21:38:16.666Z,60.64
2023-05-01T21:40:46.241Z,60.38
2023-05-01T21:43:13.209Z,58.05
2023-05-01T21:45:44.102Z,58.44
2023-05-01T21:48:15.021Z,57.23
2023-05-01T21:50:42.062Z,57.79
2023-05-01T21:53:09.107Z,60.00
2023-05-01T21:55:36.236Z,58.37
2023-05-01T21:58:03.286Z,58.28
2023-05-01T22:00:30.493Z,57.21
2023-05-01T22:02:57.618Z,57.90
2023-05-01T22:05:24.846Z,57.41
2023-05-01T22:07:52.686Z,58.82
2023-05-01T22:10:20.353Z,58.86
2023-05-01T22:12:49.636Z,57.87
2023-05-01T22:15:16.874Z,57.39
2023-05-01T22:17:44.771Z,58.39
2023-05-01T22:20:12.147Z,59.78
2023-05-01T22:22:40.756Z,58.16
2023-05-01T22:25:08.855Z,58.38
2023-05-01T22:27:36.717Z,59.82
2023-05-01T22:30:04.992Z,60.03
2023-05-01T22:32:32.312Z,58.92
2023-05-01T22:34:59.378Z,58.77
2023-05-01T22:37:26.503Z,58.87
2023-05-01T22:39:54.220Z,60.45
2023-05-01T22:42:21.660Z,61.11
2023-05-01T22:44:48.719Z,60.90
2023-05-01T22:47:15.930Z,62.17
2023-05-01T22:49:42.978Z,62.70
2023-05-01T22:52:09.894Z,63.98
2023-05-01T22:54:36.830Z,65.13
2023-05-01T22:57:04.035Z,63.30
2023-05-01T22:59:31.499Z,61.91
2023-05-01T23:01:58.516Z,62.35
2023-05-01T23:04:25.826Z,62.40
2023-05-01T23:06:52.932Z,61.83
2023-05-01T23:09:19.831Z,60.97
2023-05-01T23:11:47.953Z,61.65
2023-05-01T23:14:18.462Z,61.05
2023-05-01T23:16:45.525Z,62.62
2023-05-01T23:19:25.486Z,62.15
2023-05-01T23:22:09.540Z,62.03
2023-05-01T23:24:51.080Z,62.15
2023-05-01T23:27:19.374Z,61.56
2023-05-01T23:30:00.467Z,63.80
2023-05-01T23:32:32.185Z,63.34
2023-05-01T23:35:07.675Z,63.42
2023-05-01T23:37:34.554Z,64.64
2023-05-01T23:40:02.214Z,64.78
2023-05-01T23:42:29.792Z,65.55
2023-05-01T23:44:57.224Z,66.14
2023-05-01T23:47:24.287Z,66.49
2023-05-01T23:49:51.638Z,65.73
2023-05-01T23:52:18.697Z,65.64
2023-05-01T23:54:45.617Z,65.14
2023-05-01T23:57:12.525Z,63.82
2023-05-01T23:59:39.476Z,65.43
